Time,TemperatureF,DewpointF,PressureIn,WindDirection,WindDirectionDegrees,WindSpeedMPH,WindSpeedGustMPH,Humidity,HourlyPrecipIn,Conditions,Clouds,dailyrainin,SolarRadiationWatts/m^2,SoftwareType,DateUTC
2013-04-05 00:02:00,44.0,42.0,-100.00,WNW,300,2.0,2.0,94,0.00,,,0.04,0.000000,,2013-04-05 05:02:00,
2013-04-05 00:13:00,44.0,42.0,-100.00,WNW,300,2.0,2.0,94,0.00,,,0.04,0.000000,,2013-04-05 05:13:00,
2013-04-05 00:22:00,44.0,42.0,-100.00,WNW,300,2.0,2.0,94,0.00,,,0.04,0.000000,,2013-04-05 05:22:00,
2013-04-05 00:32:00,44.0,42.0,-100.00,WNW,300,2.0,2.0,94,0.00,,,0.04,0.000000,,2013-04-05 05:32:00,
2013-04-05 01:02:00,45.0,43.0,-100.00,West,269,2.0,4.0,93,0.00,,,0.04,0.000000,,2013-04-05 06:02:00,
2013-04-05 01:12:00,45.0,43.0,-100.00,West,269,2.0,4.0,93,0.00,,,0.04,0.000000,,2013-04-05 06:12:00,
2013-04-05 01:22:00,45.0,43.0,-100.00,West,269,2.0,4.0,93,0.00,,,0.04,0.000000,,2013-04-05 06:22:00,
2013-04-05 01:32:00,45.0,43.0,-100.00,West,269,2.0,4.0,93,0.00,,,0.04,0.000000,,2013-04-05 06:32:00,
2013-04-05 02:02:00,42.0,41.0,-100.00,WSW,257,0.0,3.0,95,0.00,,,0.04,0.000000,,2013-04-05 07:02:00,
2013-04-05 02:12:00,42.0,41.0,-100.00,WSW,257,0.0,3.0,95,0.00,,,0.04,0.000000,,2013-04-05 07:12:00,
2013-04-05 02:22:00,42.0,41.0,-100.00,WSW,257,0.0,3.0,95,0.00,,,0.04,0.000000,,2013-04-05 07:22:00,
2013-04-05 02:32:00,42.0,41.0,-100.00,WSW,257,0.0,3.0,95,0.00,,,0.04,0.000000,,2013-04-05 07:32:00,
2013-04-05 03:02:00,40.0,39.0,-100.00,SW,225,0.0,2.0,97,0.00,,,0.04,0.000000,,2013-04-05 08:02:00,
2013-04-05 03:13:00,40.0,39.0,-100.00,SW,225,0.0,2.0,97,0.00,,,0.04,0.000000,,2013-04-05 08:13:00,
2013-04-05 03:22:00,40.0,39.0,-100.00,SW,225,0.0,2.0,97,0.00,,,0.04,0.000000,,2013-04-05 08:22:00,
2013-04-05 03:32:00,40.0,39.0,-100.00,SW,225,0.0,2.0,97,0.00,,,0.04,0.000000,,2013-04-05 08:32:00,
2013-04-05 04:02:00,39.0,38.0,-100.00,WNW,288,1.0,3.0,98,0.00,,,0.04,0.000000,,2013-04-05 09:02:00,
2013-04-05 04:12:00,39.0,38.0,-100.00,WNW,288,1.0,3.0,98,0.00,,,0.04,0.000000,,2013-04-05 09:12:00,
2013-04-05 04:22:00,39.0,38.0,-100.00,WNW,288,1.0,3.0,98,0.00,,,0.04,0.000000,,2013-04-05 09:22:00,
2013-04-05 04:33:00,39.0,38.0,-100.00,WNW,288,1.0,3.0,98,0.00,,,0.04,0.000000,,2013-04-05 09:33:00,
2013-04-05 05:03:00,38.0,37.0,-100.00,NW,305,1.0,3.0,98,0.00,,,0.04,0.000000,,2013-04-05 10:03:00,
2013-04-05 05:13:00,38.0,37.0,-100.00,NW,305,1.0,3.0,98,0.00,,,0.04,0.000000,,2013-04-05 10:13:00,
2013-04-05 05:23:00,38.0,37.0,-100.00,NW,305,1.0,3.0,98,0.00,,,0.04,0.000000,,2013-04-05 10:23:00,
2013-04-05 05:32:00,38.0,37.0,-100.00,NW,305,1.0,3.0,98,0.00,,,0.04,0.000000,,2013-04-05 10:32:00,
2013-04-05 06:02:00,39.0,39.0,-100.00,West,279,2.0,4.0,99,0.00,,,0.04,0.000000,,2013-04-05 11:02:00,
2013-04-05 06:13:00,39.0,39.0,-100.00,West,279,2.0,4.0,99,0.00,,,0.04,0.000000,,2013-04-05 11:13:00,
2013-04-05 06:22:00,39.0,39.0,-100.00,West,279,2.0,4.0,99,0.00,,,0.04,0.000000,,2013-04-05 11:22:00,
2013-04-05 06:33:00,39.0,39.0,-100.00,West,279,2.0,4.0,99,0.00,,,0.04,0.000000,,2013-04-05 11:33:00,
2013-04-05 07:02:00,37.0,36.0,-100.00,West,272,2.0,3.0,98,0.00,,,0.04,1.000000,,2013-04-05 12:02:00,
2013-04-05 07:12:00,37.0,36.0,-100.00,West,272,2.0,3.0,98,0.00,,,0.04,1.000000,,2013-04-05 12:12:00,
2013-04-05 07:22:00,37.0,36.0,-100.00,West,272,2.0,3.0,98,0.00,,,0.04,1.000000,,2013-04-05 12:22:00,
2013-04-05 07:32:00,37.0,36.0,-100.00,West,272,2.0,3.0,98,0.00,,,0.04,1.000000,,2013-04-05 12:32:00,
2013-04-05 08:02:00,42.0,41.0,-100.00,WNW,288,2.0,4.0,98,0.00,,,0.04,79.000000,,2013-04-05 13:02:00,
2013-04-05 08:12:00,42.0,41.0,-100.00,WNW,288,2.0,4.0,98,0.00,,,0.04,79.000000,,2013-04-05 13:12:00,
2013-04-05 08:22:00,42.0,41.0,-100.00,WNW,288,2.0,4.0,98,0.00,,,0.04,79.000000,,2013-04-05 13:22:00,
2013-04-05 08:32:00,42.0,41.0,-100.00,WNW,288,2.0,4.0,98,0.00,,,0.04,79.000000,,2013-04-05 13:32:00,
2013-04-05 08:36:00,48.0,38.0,-100.00,WNW,302,2.0,6.0,68,0.00,,,0.04,290.000000,,2013-04-05 13:36:00,
2013-04-05 09:03:00,48.0,38.0,-100.00,WNW,302,2.0,6.0,68,0.00,,,0.04,290.000000,,2013-04-05 14:03:00,
2013-04-05 09:12:00,48.0,38.0,-100.00,WNW,302,2.0,6.0,68,0.00,,,0.04,290.000000,,2013-04-05 14:12:00,
2013-04-05 09:23:00,48.0,38.0,-100.00,WNW,302,2.0,6.0,68,0.00,,,0.04,290.000000,,2013-04-05 14:23:00,
2013-04-05 10:02:00,56.0,38.0,-100.00,NNW,335,3.0,5.0,50,0.00,,,0.04,504.000000,,2013-04-05 15:02:00,
2013-04-05 10:12:00,56.0,38.0,-100.00,NNW,335,3.0,5.0,50,0.00,,,0.04,504.000000,,2013-04-05 15:12:00,
2013-04-05 10:23:00,56.0,38.0,-100.00,NNW,335,3.0,5.0,50,0.00,,,0.04,504.000000,,2013-04-05 15:23:00,
2013-04-05 10:33:00,56.0,38.0,-100.00,NNW,335,3.0,5.0,50,0.00,,,0.04,504.000000,,2013-04-05 15:33:00,
2013-04-05 11:02:00,61.0,32.0,-100.00,NNE,18,4.0,7.0,33,0.00,,,0.02,690.000000,,2013-04-05 16:02:00,
2013-04-05 11:23:00,61.0,32.0,-100.00,NNE,18,4.0,7.0,33,0.00,,,0.02,690.000000,,2013-04-05 16:23:00,
2013-04-05 11:33:00,61.0,32.0,-100.00,NNE,18,4.0,7.0,33,0.00,,,0.02,690.000000,,2013-04-05 16:33:00,
2013-04-05 12:03:00,63.0,33.0,-100.00,WNW,292,5.0,10.0,33,0.00,,,0.02,833.000000,,2013-04-05 17:03:00,
2013-04-05 12:13:00,63.0,33.0,-100.00,WNW,292,5.0,10.0,33,0.00,,,0.02,833.000000,,2013-04-05 17:13:00,
2013-04-05 12:23:00,63.0,33.0,-100.00,WNW,292,5.0,10.0,33,0.00,,,0.02,833.000000,,2013-04-05 17:23:00,
2013-04-05 12:32:00,63.0,33.0,-100.00,WNW,292,5.0,10.0,33,0.00,,,0.02,833.000000,,2013-04-05 17:32:00,
2013-04-05 13:02:00,64.0,30.0,-100.00,West,271,6.0,11.0,28,0.00,,,0.01,915.000000,,2013-04-05 18:02:00,
2013-04-05 13:12:00,64.0,30.0,-100.00,West,271,6.0,11.0,28,0.00,,,0.01,915.000000,,2013-04-05 18:12:00,
2013-04-05 13:22:00,64.0,30.0,-100.00,West,271,6.0,11.0,28,0.00,,,0.01,915.000000,,2013-04-05 18:22:00,
2013-04-05 13:33:00,64.0,30.0,-100.00,West,271,6.0,11.0,28,0.00,,,0.01,915.000000,,2013-04-05 18:33:00,
2013-04-05 14:02:00,67.0,30.0,-100.00,West,275,6.0,13.0,25,0.00,,,0.00,935.000000,,2013-04-05 19:02:00,
2013-04-05 14:13:00,67.0,30.0,-100.00,West,275,6.0,13.0,25,0.00,,,0.00,935.000000,,2013-04-05 19:13:00,
2013-04-05 14:23:00,67.0,30.0,-100.00,West,275,6.0,13.0,25,0.00,,,0.00,935.000000,,2013-04-05 19:23:00,
2013-04-05 14:33:00,67.0,30.0,-100.00,West,275,6.0,13.0,25,0.00,,,0.00,935.000000,,2013-04-05 19:33:00,
2013-04-05 15:02:00,68.0,30.0,-100.00,WNW,298,6.0,13.0,24,0.00,,,0.00,888.000000,,2013-04-05 20:02:00,
2013-04-05 15:11:00,68.0,30.0,-100.00,WNW,298,6.0,13.0,24,0.00,,,0.00,888.000000,,2013-04-05 20:11:00,
2013-04-05 15:22:00,68.0,30.0,-100.00,WNW,298,6.0,13.0,24,0.00,,,0.00,888.000000,,2013-04-05 20:22:00,
2013-04-05 15:32:00,68.0,30.0,-100.00,WNW,298,6.0,13.0,24,0.00,,,0.00,888.000000,,2013-04-05 20:32:00,
2013-04-05 16:02:00,69.0,31.0,-100.00,WNW,285,6.0,15.0,24,0.00,,,0.00,767.000000,,2013-04-05 21:02:00,
2013-04-05 16:13:00,69.0,31.0,-100.00,WNW,285,6.0,15.0,24,0.00,,,0.00,767.000000,,2013-04-05 21:13:00,
2013-04-05 16:23:00,69.0,31.0,-100.00,WNW,285,6.0,15.0,24,0.00,,,0.00,767.000000,,2013-04-05 21:23:00,
2013-04-05 16:33:00,69.0,31.0,-100.00,WNW,285,6.0,15.0,24,0.00,,,0.00,767.000000,,2013-04-05 21:33:00,
2013-04-05 17:03:00,70.0,30.0,-100.00,WNW,290,5.0,13.0,23,0.00,,,0.00,428.000000,,2013-04-05 22:03:00,
2013-04-05 17:13:00,70.0,30.0,-100.00,WNW,290,5.0,13.0,23,0.00,,,0.00,428.000000,,2013-04-05 22:13:00,
2013-04-05 17:23:00,70.0,30.0,-100.00,WNW,290,5.0,13.0,23,0.00,,,0.00,428.000000,,2013-04-05 22:23:00,
2013-04-05 17:33:00,70.0,30.0,-100.00,WNW,290,5.0,13.0,23,0.00,,,0.00,428.000000,,2013-04-05 22:33:00,
2013-04-05 18:03:00,70.0,32.0,-100.00,WNW,291,3.0,12.0,24,0.00,,,0.00,211.000000,,2013-04-05 23:03:00,
2013-04-05 18:12:00,70.0,32.0,-100.00,WNW,291,3.0,12.0,24,0.00,,,0.00,211.000000,,2013-04-05 23:12:00,
2013-04-05 18:22:00,70.0,32.0,-100.00,WNW,291,3.0,12.0,24,0.00,,,0.00,211.000000,,2013-04-05 23:22:00,
2013-04-05 18:32:00,70.0,32.0,-100.00,WNW,291,3.0,12.0,24,0.00,,,0.00,211.000000,,2013-04-05 23:32:00,
2013-04-05 19:02:00,67.0,32.0,-100.00,NW,312,2.0,8.0,27,0.00,,,0.00,171.000000,,2013-04-06 00:02:00,
2013-04-05 19:13:00,67.0,32.0,-100.00,NW,312,2.0,8.0,27,0.00,,,0.00,171.000000,,2013-04-06 00:13:00,
2013-04-05 19:23:00,67.0,32.0,-100.00,NW,312,2.0,8.0,27,0.00,,,0.00,171.000000,,2013-04-06 00:23:00,
2013-04-05 19:32:00,67.0,32.0,-100.00,NW,312,2.0,8.0,27,0.00,,,0.00,171.000000,,2013-04-06 00:32:00,
2013-04-05 20:02:00,59.0,32.0,-100.00,WSW,255,2.0,5.0,36,0.00,,,0.00,13.000000,,2013-04-06 01:02:00,
2013-04-05 20:13:00,59.0,32.0,-100.00,WSW,255,2.0,5.0,36,0.00,,,0.00,13.000000,,2013-04-06 01:13:00,
2013-04-05 20:22:00,59.0,32.0,-100.00,WSW,255,2.0,5.0,36,0.00,,,0.00,13.000000,,2013-04-06 01:22:00,
2013-04-05 20:32:00,59.0,32.0,-100.00,WSW,255,2.0,5.0,36,0.00,,,0.00,13.000000,,2013-04-06 01:32:00,
2013-04-05 21:02:00,56.0,33.0,-100.00,NNW,338,0.0,5.0,42,0.00,,,0.00,0.000000,,2013-04-06 02:02:00,
2013-04-05 21:12:00,56.0,33.0,-100.00,NNW,338,0.0,5.0,42,0.00,,,0.00,0.000000,,2013-04-06 02:12:00,
2013-04-05 21:22:00,56.0,33.0,-100.00,NNW,338,0.0,5.0,42,0.00,,,0.00,0.000000,,2013-04-06 02:22:00,
2013-04-05 21:32:00,56.0,33.0,-100.00,NNW,338,0.0,5.0,42,0.00,,,0.00,0.000000,,2013-04-06 02:32:00,
2013-04-05 22:02:00,56.0,34.0,-100.00,NE,49,2.0,3.0,43,0.00,,,0.00,0.000000,,2013-04-06 03:02:00,
2013-04-05 22:12:00,56.0,34.0,-100.00,NE,49,2.0,3.0,43,0.00,,,0.00,0.000000,,2013-04-06 03:12:00,
2013-04-05 22:22:00,56.0,34.0,-100.00,NE,49,2.0,3.0,43,0.00,,,0.00,0.000000,,2013-04-06 03:22:00,
2013-04-05 22:33:00,56.0,34.0,-100.00,NE,49,2.0,3.0,43,0.00,,,0.00,0.000000,,2013-04-06 03:33:00,
2013-04-05 23:03:00,54.0,34.0,-100.00,NE,42,1.0,3.0,46,0.00,,,0.00,0.000000,,2013-04-06 04:03:00,
2013-04-05 23:14:00,54.0,34.0,-100.00,NE,42,1.0,3.0,46,0.00,,,0.00,0.000000,,2013-04-06 04:14:00,
2013-04-05 23:23:00,54.0,34.0,-100.00,NE,42,1.0,3.0,46,0.00,,,0.00,0.000000,,2013-04-06 04:23:00,
2013-04-05 23:32:00,54.0,34.0,-100.00,NE,42,1.0,3.0,46,0.00,,,0.00,0.000000,,2013-04-06 04:32:00,